Time;durP1;ratioP1;P1;durP2;ratioP2;P2;SDS_P1;SDS_P2;PMS_P1;PMS_P2;Temp;Humidity;BMP_temperature;BMP_pressure;BME280_temperature;BME280_humidity;BME280_pressure;Samples;Min_cycle;Max_cycle;Signal;HPM_P1;HPM_P2
2021/12/22 00:25:49;;;;;;;5.65;3.50;;;;;;;;;;5128497;27;20432;-81
2021/12/22 00:28:14;;;;;;;4.00;2.75;;;;;;;;;;5108717;28;20469;-86
2021/12/22 00:30:40;;;;;;;5.03;2.58;;;;;;;;;;5107632;28;20444;-84
2021/12/22 00:33:09;;;;;;;5.32;2.63;;;;;;;;;;5107464;28;20103;-84
2021/12/22 00:35:40;;;;;;;4.38;2.70;;;;;;;;;;5107720;28;20136;-84
2021/12/22 00:38:07;;;;;;;12.38;4.53;;;;;;;;;;5108089;28;20032;-85
2021/12/22 00:40:33;;;;;;;12.80;4.88;;;;;;;;;;5108136;28;20031;-82
2021/12/22 00:42:58;;;;;;;9.23;4.68;;;;;;;;;;5104872;28;20058;-84
2021/12/22 00:45:27;;;;;;;6.70;4.40;;;;;;;;;;5107196;28;20428;-85
2021/12/22 00:47:53;;;;;;;14.00;7.43;;;;;;;;;;5108902;28;20063;-84
2021/12/22 00:50:19;;;;;;;12.15;6.82;;;;;;;;;;5109436;28;20755;-84
2021/12/22 00:52:44;;;;;;;12.32;7.47;;;;;;;;;;5107789;28;20107;-82
2021/12/22 00:55:10;;;;;;;10.40;5.90;;;;;;;;;;5108832;28;20028;-86
2021/12/22 00:57:38;;;;;;;11.15;5.22;;;;;;;;;;5105764;28;20481;-82
2021/12/22 01:00:07;;;;;;;8.48;4.40;;;;;;;;;;5103108;28;20032;-80
2021/12/22 01:02:33;;;;;;;10.55;4.78;;;;;;;;;;5107089;28;20114;-84
2021/12/22 01:04:58;;;;;;;8.63;4.93;;;;;;;;;;5108447;28;20039;-83
2021/12/22 01:07:24;;;;;;;12.20;6.13;;;;;;;;;;5107047;28;20027;-81
2021/12/22 01:09:50;;;;;;;12.52;7.07;;;;;;;;;;5106992;28;20114;-80
2021/12/22 01:12:15;;;;;;;11.63;6.53;;;;;;;;;;5108071;28;20070;-83
2021/12/22 01:14:42;;;;;;;11.68;6.45;;;;;;;;;;5104962;28;20021;-83
2021/12/22 01:17:11;;;;;;;13.27;6.32;;;;;;;;;;5108691;28;20103;-82
2021/12/22 01:19:45;;;;;;;10.80;6.72;;;;;;;;;;5105935;28;20593;-82
2021/12/22 01:22:48;;;;;;;10.05;5.93;;;;;;;;;;5104235;28;20418;-82
2021/12/22 01:25:07;;;;;;;8.07;5.15;;;;;;;;;;5095881;28;20055;-83
2021/12/22 01:27:36;;;;;;;10.80;5.72;;;;;;;;;;5093552;28;20035;-80
2021/12/22 01:30:25;;;;;;;9.85;4.55;;;;;;;;;;5094272;28;20073;-82
2021/12/22 01:32:53;;;;;;;15.95;6.93;;;;;;;;;;5109681;28;20356;-83
2021/12/22 01:35:22;;;;;;;10.70;5.82;;;;;;;;;;5095458;28;20035;-81
2021/12/22 01:37:48;;;;;;;11.40;5.95;;;;;;;;;;5094195;28;20107;-82
2021/12/22 01:40:15;;;;;;;19.67;8.90;;;;;;;;;;5091693;28;20025;-83
2021/12/22 01:42:41;;;;;;;23.85;11.18;;;;;;;;;;5086364;28;20063;-80
2021/12/22 01:45:27;;;;;;;19.02;12.10;;;;;;;;;;5092280;28;20032;-80
2021/12/22 01:50:49;;;;;;;27.48;14.32;;;;;;;;;;5094257;28;20047;-82
2021/12/22 01:53:20;;;;;;;23.08;10.85;;;;;;;;;;5090183;28;20020;-81
2021/12/22 01:55:59;;;;;;;19.20;8.63;;;;;;;;;;5093282;28;20380;-81
2021/12/22 01:58:35;;;;;;;12.55;6.97;;;;;;;;;;5093874;28;20016;-82
2021/12/22 02:01:03;;;;;;;15.70;7.82;;;;;;;;;;5095631;28;20020;-82
2021/12/22 02:03:29;;;;;;;11.40;7.60;;;;;;;;;;5090154;28;20131;-81
2021/12/22 02:05:54;;;;;;;12.90;6.45;;;;;;;;;;5093236;28;20127;-83
2021/12/22 02:08:20;;;;;;;7.57;4.65;;;;;;;;;;5093419;28;20028;-83
2021/12/22 02:10:47;;;;;;;8.98;4.47;;;;;;;;;;5094716;28;20077;-80
2021/12/22 02:13:22;;;;;;;16.42;7.40;;;;;;;;;;5093248;28;20032;-80
2021/12/22 02:15:48;;;;;;;10.48;5.90;;;;;;;;;;5090581;28;20047;-82
2021/12/22 02:18:18;;;;;;;8.48;4.45;;;;;;;;;;5092647;28;20471;-82
2021/12/22 02:20:49;;;;;;;8.30;4.13;;;;;;;;;;5092411;28;20028;-81
2021/12/22 02:23:14;;;;;;;13.30;5.47;;;;;;;;;;5090525;28;20387;-79
2021/12/22 02:25:49;;;;;;;8.85;4.40;;;;;;;;;;5092688;28;20048;-80
2021/12/22 02:28:21;;;;;;;7.63;4.28;;;;;;;;;;5092823;28;20016;-82
2021/12/22 02:30:47;;;;;;;10.18;4.45;;;;;;;;;;5092483;28;20467;-80
2021/12/22 02:33:48;;;;;;;7.45;5.13;;;;;;;;;;5087328;28;20020;-82
2021/12/22 02:36:21;;;;;;;9.23;4.28;;;;;;;;;;5089488;28;20043;-80
2021/12/22 02:38:58;;;;;;;10.90;4.18;;;;;;;;;;5089191;28;20028;-80
2021/12/22 02:41:28;;;;;;;9.75;4.88;;;;;;;;;;5089015;28;20495;-82
2021/12/22 02:43:56;;;;;;;6.18;4.03;;;;;;;;;;5091365;28;20028;-81
2021/12/22 02:46:27;;;;;;;10.18;4.35;;;;;;;;;;5091289;28;20043;-81
2021/12/22 02:48:53;;;;;;;6.10;3.90;;;;;;;;;;5090783;28;20440;-81
2021/12/22 02:51:20;;;;;;;10.82;4.53;;;;;;;;;;5089112;28;20386;-80
2021/12/22 02:54:03;;;;;;;7.90;4.20;;;;;;;;;;5090545;28;20028;-81
2021/12/22 02:59:51;;;;;;;8.88;5.22;;;;;;;;;;5081502;28;20506;-82
2021/12/22 03:02:26;;;;;;;10.05;4.75;;;;;;;;;;5090950;28;21584;-81
2021/12/22 03:04:57;;;;;;;9.52;6.07;;;;;;;;;;5092464;28;20095;-82
2021/12/22 03:07:27;;;;;;;5.78;3.08;;;;;;;;;;5094112;28;20027;-82
2021/12/22 03:10:00;;;;;;;7.95;4.38;;;;;;;;;;5091723;28;20020;-82
2021/12/22 03:12:30;;;;;;;7.53;4.05;;;;;;;;;;5091883;28;20040;-83
2021/12/22 03:14:55;;;;;;;7.38;4.45;;;;;;;;;;5090463;28;20475;-84
2021/12/22 03:17:21;;;;;;;7.68;4.35;;;;;;;;;;5092054;28;20036;-85
2021/12/22 03:19:46;;;;;;;7.03;4.10;;;;;;;;;;5090838;28;20071;-83
2021/12/22 03:22:17;;;;;;;6.38;3.90;;;;;;;;;;5090506;28;20024;-82
2021/12/22 03:24:48;;;;;;;7.57;4.60;;;;;;;;;;5088040;28;20044;-82
2021/12/22 03:27:13;;;;;;;5.90;4.05;;;;;;;;;;5091876;28;20031;-83
2021/12/22 03:29:39;;;;;;;4.93;3.72;;;;;;;;;;5090665;28;20368;-85
2021/12/22 03:32:07;;;;;;;5.65;3.55;;;;;;;;;;5090872;28;20172;-85
2021/12/22 03:34:34;;;;;;;7.43;3.90;;;;;;;;;;5091820;28;20035;-83
2021/12/22 03:36:59;;;;;;;9.02;4.60;;;;;;;;;;5091444;28;20069;-80
2021/12/22 03:39:27;;;;;;;8.23;5.00;;;;;;;;;;5092109;28;20032;-83
2021/12/22 03:41:52;;;;;;;6.25;4.05;;;;;;;;;;5091611;28;20020;-80
2021/12/22 03:44:18;;;;;;;7.25;3.90;;;;;;;;;;5089739;28;20074;-82
2021/12/22 03:46:44;;;;;;;8.40;4.40;;;;;;;;;;5090309;28;20032;-84
2021/12/22 03:49:11;;;;;;;9.98;5.55;;;;;;;;;;5089286;28;20387;-80
2021/12/22 03:51:37;;;;;;;20.70;8.00;;;;;;;;;;5089731;28;20458;-83
2021/12/22 03:54:04;;;;;;;8.07;4.80;;;;;;;;;;5089855;28;20096;-83
2021/12/22 03:56:30;;;;;;;9.13;5.07;;;;;;;;;;5090579;28;20395;-80
2021/12/22 03:58:55;;;;;;;8.82;6.53;;;;;;;;;;5087062;28;20024;-81
2021/12/22 04:01:21;;;;;;;11.50;5.97;;;;;;;;;;5088495;28;20421;-83
2021/12/22 04:03:50;;;;;;;22.48;11.45;;;;;;;;;;5090089;28;20492;-82
2021/12/22 04:06:16;;;;;;;16.88;9.20;;;;;;;;;;5089186;28;20026;-82
2021/12/22 04:08:41;;;;;;;6.60;4.72;;;;;;;;;;5090211;28;20114;-82
2021/12/22 04:11:07;;;;;;;8.35;5.28;;;;;;;;;;5089906;28;20035;-82
2021/12/22 04:13:32;;;;;;;9.48;6.38;;;;;;;;;;5089648;28;20058;-84
2021/12/22 04:15:58;;;;;;;6.88;4.38;;;;;;;;;;5090746;28;20111;-82
2021/12/22 04:18:23;;;;;;;6.30;3.90;;;;;;;;;;5089415;28;20052;-82
2021/12/22 04:20:49;;;;;;;7.85;5.15;;;;;;;;;;5090215;28;20036;-80
2021/12/22 04:23:15;;;;;;;6.35;3.88;;;;;;;;;;5088004;28;20031;-80
2021/12/22 04:25:41;;;;;;;11.40;5.95;;;;;;;;;;5090115;28;20459;-85
2021/12/22 04:28:09;;;;;;;10.00;6.25;;;;;;;;;;5089355;28;20085;-84
2021/12/22 04:30:38;;;;;;;6.40;3.75;;;;;;;;;;5090258;28;20463;-81
2021/12/22 04:33:04;;;;;;;5.03;3.53;;;;;;;;;;5087652;28;20069;-85
2021/12/22 04:35:30;;;;;;;12.63;5.70;;;;;;;;;;5090898;28;20099;-82
2021/12/22 04:37:56;;;;;;;5.88;3.65;;;;;;;;;;5091039;28;20436;-84
2021/12/22 04:40:21;;;;;;;6.15;3.47;;;;;;;;;;5089545;28;20118;-81
2021/12/22 04:42:47;;;;;;;6.88;4.32;;;;;;;;;;5090818;28;20524;-82
2021/12/22 04:45:14;;;;;;;3.65;2.92;;;;;;;;;;5090026;28;20024;-83
2021/12/22 04:47:40;;;;;;;5.93;2.67;;;;;;;;;;5088852;28;20471;-83
2021/12/22 04:50:13;;;;;;;3.75;2.78;;;;;;;;;;5090194;28;20111;-83
2021/12/22 04:52:47;;;;;;;8.07;3.72;;;;;;;;;;5090826;28;20035;-85
2021/12/22 04:55:13;;;;;;;5.85;2.78;;;;;;;;;;5090079;28;20024;-83
2021/12/22 04:57:41;;;;;;;5.13;3.50;;;;;;;;;;5087226;28;20119;-82
2021/12/22 05:00:10;;;;;;;6.40;4.00;;;;;;;;;;5090542;28;20028;-86
2021/12/22 05:02:36;;;;;;;5.55;3.92;;;;;;;;;;5093727;28;20471;-83
2021/12/22 05:05:03;;;;;;;6.07;3.80;;;;;;;;;;5092668;28;20089;-81
2021/12/22 05:07:29;;;;;;;6.65;3.95;;;;;;;;;;5091880;28;20092;-83
2021/12/22 05:09:54;;;;;;;6.68;3.72;;;;;;;;;;5094613;28;20028;-82
2021/12/22 05:12:20;;;;;;;5.72;3.70;;;;;;;;;;5091588;28;20024;-84
2021/12/22 05:14:49;;;;;;;6.55;4.70;;;;;;;;;;5092654;28;20028;-83
2021/12/22 05:20:05;;;;;;;6.22;2.80;;;;;;;;;;5076623;28;20063;-81
2021/12/22 05:22:31;;;;;;;3.67;2.47;;;;;;;;;;5092400;28;20429;-82
2021/12/22 05:24:59;;;;;;;5.15;3.10;;;;;;;;;;5092443;28;20043;-82
2021/12/22 05:27:24;;;;;;;4.95;3.08;;;;;;;;;;5093797;28;20057;-81
2021/12/22 05:29:50;;;;;;;4.47;2.75;;;;;;;;;;5092108;28;20678;-82
2021/12/22 05:32:15;;;;;;;7.15;2.53;;;;;;;;;;5092735;28;20023;-82
2021/12/22 05:34:41;;;;;;;8.18;3.90;;;;;;;;;;5093182;28;20020;-84
2021/12/22 05:37:06;;;;;;;6.53;3.70;;;;;;;;;;5084623;28;20030;-81
2021/12/22 05:39:32;;;;;;;4.70;3.08;;;;;;;;;;5090650;28;20038;-79
2021/12/22 05:41:59;;;;;;;5.13;2.97;;;;;;;;;;5089942;28;20034;-82
2021/12/22 05:44:25;;;;;;;7.55;3.70;;;;;;;;;;5091770;28;20048;-83
2021/12/22 05:46:50;;;;;;;6.47;5.28;;;;;;;;;;5091438;28;20117;-83
2021/12/22 05:49:16;;;;;;;8.95;3.67;;;;;;;;;;5089551;28;20451;-82
2021/12/22 05:51:41;;;;;;;6.13;3.78;;;;;;;;;;5092901;28;20028;-82
2021/12/22 05:54:07;;;;;;;9.65;5.53;;;;;;;;;;5086522;28;20047;-79
2021/12/22 05:56:32;;;;;;;6.65;3.42;;;;;;;;;;5094001;28;20036;-80
2021/12/22 05:59:00;;;;;;;7.07;3.65;;;;;;;;;;5093297;28;20032;-81
2021/12/22 06:01:26;;;;;;;7.60;4.47;;;;;;;;;;5090407;28;20445;-79
2021/12/22 06:03:52;;;;;;;5.63;4.20;;;;;;;;;;5091973;28;20130;-80
2021/12/22 06:06:17;;;;;;;6.28;3.28;;;;;;;;;;5092081;28;20518;-80
2021/12/22 06:08:43;;;;;;;4.47;2.42;;;;;;;;;;5092050;28;20024;-79
2021/12/22 06:11:08;;;;;;;5.93;3.17;;;;;;;;;;5090986;28;20028;-81
2021/12/22 06:13:34;;;;;;;6.40;2.90;;;;;;;;;;5092101;28;20464;-80
2021/12/22 06:15:59;;;;;;;4.32;2.10;;;;;;;;;;5088437;28;20024;-79
2021/12/22 06:18:26;;;;;;;5.05;2.90;;;;;;;;;;5091999;28;20427;-80
2021/12/22 06:20:51;;;;;;;2.45;1.92;;;;;;;;;;5089615;28;20395;-78
2021/12/22 06:23:17;;;;;;;5.55;2.63;;;;;;;;;;5091234;28;20024;-80
2021/12/22 06:25:43;;;;;;;7.28;3.65;;;;;;;;;;5089916;28;20058;-79
2021/12/22 06:28:08;;;;;;;5.03;3.30;;;;;;;;;;5090181;28;20031;-80
2021/12/22 06:30:34;;;;;;;3.70;2.70;;;;;;;;;;5087519;28;20093;-79
2021/12/22 06:33:00;;;;;;;4.63;2.70;;;;;;;;;;5084616;28;20069;-80
2021/12/22 06:35:25;;;;;;;7.93;3.42;;;;;;;;;;5089105;28;20095;-82
2021/12/22 06:37:52;;;;;;;10.15;4.85;;;;;;;;;;5089621;28;20032;-79
2021/12/22 06:40:18;;;;;;;9.95;6.10;;;;;;;;;;5087210;28;20035;-80
2021/12/22 06:42:44;;;;;;;8.15;4.18;;;;;;;;;;5088440;28;20028;-79
2021/12/22 06:45:12;;;;;;;14.10;7.75;;;;;;;;;;5084371;28;20039;-80
2021/12/22 06:47:39;;;;;;;15.32;8.07;;;;;;;;;;5088716;28;20046;-79
2021/12/22 06:50:06;;;;;;;18.80;7.93;;;;;;;;;;5090107;28;20039;-80
2021/12/22 06:52:32;;;;;;;21.33;8.32;;;;;;;;;;5088400;28;20501;-81
2021/12/22 06:54:57;;;;;;;18.35;9.63;;;;;;;;;;5089180;28;20032;-79
2021/12/22 06:57:23;;;;;;;15.20;8.55;;;;;;;;;;5088871;28;20028;-79
2021/12/22 06:59:49;;;;;;;12.27;7.95;;;;;;;;;;5083412;28;20395;-81
2021/12/22 07:02:15;;;;;;;13.02;8.70;;;;;;;;;;5086815;28;20032;-79
2021/12/22 07:04:41;;;;;;;21.63;10.27;;;;;;;;;;5087299;28;20056;-80
2021/12/22 07:07:06;;;;;;;12.95;8.63;;;;;;;;;;5088705;28;20502;-80
2021/12/22 07:09:32;;;;;;;17.67;9.40;;;;;;;;;;5086349;28;20425;-81
2021/12/22 07:11:57;;;;;;;13.88;8.60;;;;;;;;;;5087551;28;20063;-79
2021/12/22 07:14:23;;;;;;;16.08;8.10;;;;;;;;;;5087142;28;20411;-80
2021/12/22 07:16:49;;;;;;;8.93;5.10;;;;;;;;;;5084774;28;20483;-78
2021/12/22 07:19:14;;;;;;;12.52;6.30;;;;;;;;;;5085858;28;20024;-78
2021/12/22 07:21:40;;;;;;;9.25;5.43;;;;;;;;;;5080762;28;20118;-80
2021/12/22 07:24:06;;;;;;;13.77;6.90;;;;;;;;;;5085935;28;20541;-80
2021/12/22 07:26:32;;;;;;;10.63;5.82;;;;;;;;;;5083873;28;20024;-79
2021/12/22 07:28:58;;;;;;;15.18;6.10;;;;;;;;;;5084128;28;20482;-79
2021/12/22 07:31:24;;;;;;;20.77;7.32;;;;;;;;;;5086413;28;20027;-78
2021/12/22 07:34:00;;;;;;;21.00;6.15;;;;;;;;;;5086704;28;20098;-80
2021/12/22 07:36:25;;;;;;;9.15;5.95;;;;;;;;;;5082279;28;20166;-79
2021/12/22 07:39:00;;;;;;;11.10;6.53;;;;;;;;;;5086932;28;20120;-79
2021/12/22 07:41:27;;;;;;;11.15;6.30;;;;;;;;;;5085538;28;20034;-79
2021/12/22 07:43:53;;;;;;;12.25;6.78;;;;;;;;;;5117608;27;20028;-79
2021/12/22 07:46:18;;;;;;;8.07;4.93;;;;;;;;;;5098732;28;20079;-80
2021/12/22 07:48:44;;;;;;;14.15;7.88;;;;;;;;;;5086948;28;20020;-79
2021/12/22 07:51:10;;;;;;;11.93;7.20;;;;;;;;;;5087125;28;20073;-80
2021/12/22 07:53:35;;;;;;;12.93;7.15;;;;;;;;;;5084117;28;20553;-79
2021/12/22 07:56:01;;;;;;;16.27;9.95;;;;;;;;;;5115842;27;20040;-78
2021/12/22 07:58:27;;;;;;;16.67;10.45;;;;;;;;;;5086111;28;20443;-79
2021/12/22 08:00:53;;;;;;;18.20;10.25;;;;;;;;;;5080191;28;20399;-79
2021/12/22 08:03:20;;;;;;;7.72;5.43;;;;;;;;;;5085216;28;20107;-79
2021/12/22 08:05:46;;;;;;;19.23;7.32;;;;;;;;;;5085586;28;20024;-79
2021/12/22 08:08:11;;;;;;;13.25;6.35;;;;;;;;;;5084490;28;20055;-80
2021/12/22 08:10:37;;;;;;;13.30;6.97;;;;;;;;;;5083814;28;20116;-79
2021/12/22 08:13:03;;;;;;;13.93;7.05;;;;;;;;;;5085298;28;20056;-80
2021/12/22 08:15:28;;;;;;;14.07;7.30;;;;;;;;;;5087511;28;20027;-81
2021/12/22 08:17:55;;;;;;;11.02;6.32;;;;;;;;;;5086062;28;20031;-79
2021/12/22 08:20:21;;;;;;;13.40;6.57;;;;;;;;;;5086857;28;20027;-79
2021/12/22 08:22:47;;;;;;;16.08;8.20;;;;;;;;;;5087003;28;21196;-80
2021/12/22 08:25:13;;;;;;;15.60;7.22;;;;;;;;;;5089020;28;20490;-80
2021/12/22 08:27:38;;;;;;;15.15;7.88;;;;;;;;;;5082687;28;20115;-80
2021/12/22 08:30:05;;;;;;;15.68;9.27;;;;;;;;;;5086132;28;20029;-80
2021/12/22 08:32:31;;;;;;;29.02;13.00;;;;;;;;;;5085655;28;20059;-80
2021/12/22 08:34:57;;;;;;;17.30;9.70;;;;;;;;;;5088661;28;20712;-79
2021/12/22 08:40:14;;;;;;;14.25;8.82;;;;;;;;;;5090151;28;20541;-79
2021/12/22 08:42:41;;;;;;;18.10;9.15;;;;;;;;;;5091233;28;20112;-78
2021/12/22 08:45:07;;;;;;;18.20;9.23;;;;;;;;;;5088395;28;20114;-82
2021/12/22 08:47:32;;;;;;;22.65;9.05;;;;;;;;;;5084441;28;20027;-79
2021/12/22 08:49:58;;;;;;;20.05;9.20;;;;;;;;;;5086649;28;20384;-77
2021/12/22 08:52:23;;;;;;;15.93;9.05;;;;;;;;;;5091322;28;20106;-78
2021/12/22 08:54:49;;;;;;;17.35;9.35;;;;;;;;;;5089264;28;20028;-78
2021/12/22 08:57:16;;;;;;;15.77;9.45;;;;;;;;;;5091441;28;20028;-79
2021/12/22 08:59:41;;;;;;;20.65;10.20;;;;;;;;;;5086864;28;20537;-79
2021/12/22 09:02:07;;;;;;;16.60;9.00;;;;;;;;;;5085765;28;20051;-77
2021/12/22 09:04:33;;;;;;;20.52;9.65;;;;;;;;;;5086790;28;20035;-79
2021/12/22 09:06:58;;;;;;;17.58;9.40;;;;;;;;;;5088595;28;20103;-79
2021/12/22 09:09:24;;;;;;;16.15;8.82;;;;;;;;;;5089039;28;20073;-79
2021/12/22 09:11:50;;;;;;;21.63;10.90;;;;;;;;;;5091435;28;20123;-78
2021/12/22 09:14:18;;;;;;;23.45;9.60;;;;;;;;;;5091224;28;20069;-78
2021/12/22 09:16:44;;;;;;;16.92;9.80;;;;;;;;;;5086762;28;20031;-79
2021/12/22 09:19:10;;;;;;;16.92;10.50;;;;;;;;;;5085976;28;20365;-81
2021/12/22 09:21:37;;;;;;;15.05;10.57;;;;;;;;;;5087154;28;20058;-81
2021/12/22 09:24:03;;;;;;;21.83;10.65;;;;;;;;;;5084157;28;20043;-81
2021/12/22 09:26:29;;;;;;;17.30;10.05;;;;;;;;;;5087106;28;20067;-80
2021/12/22 09:28:55;;;;;;;18.27;11.02;;;;;;;;;;5086158;28;20062;-80
2021/12/22 09:31:22;;;;;;;19.65;11.02;;;;;;;;;;5085138;28;20089;-79
2021/12/22 09:33:47;;;;;;;21.42;10.52;;;;;;;;;;5083397;28;20085;-78
2021/12/22 09:36:14;;;;;;;26.35;13.43;;;;;;;;;;5083325;28;20103;-80
2021/12/22 09:38:40;;;;;;;26.08;12.57;;;;;;;;;;5088565;28;20036;-79
2021/12/22 09:41:07;;;;;;;25.73;12.48;;;;;;;;;;5087665;28;20024;-79
2021/12/22 09:43:32;;;;;;;20.50;12.02;;;;;;;;;;5090778;28;20028;-78
2021/12/22 09:46:03;;;;;;;18.55;11.32;;;;;;;;;;5087207;28;20030;-79
2021/12/22 09:48:37;;;;;;;21.73;11.98;;;;;;;;;;5082831;28;20067;-79
2021/12/22 09:53:34;;;;;;;27.15;11.98;;;;;;;;;;5086640;28;20035;-80
2021/12/22 09:56:00;;;;;;;20.00;11.18;;;;;;;;;;5089400;28;20032;-80
2021/12/22 09:58:27;;;;;;;28.13;12.68;;;;;;;;;;5090751;28;20046;-79
2021/12/22 10:00:53;;;;;;;24.55;10.98;;;;;;;;;;5092318;28;20035;-78
2021/12/22 10:03:21;;;;;;;22.08;12.38;;;;;;;;;;5086158;28;20410;-79
2021/12/22 10:05:47;;;;;;;25.77;12.23;;;;;;;;;;5089561;28;20115;-79
2021/12/22 10:08:14;;;;;;;26.05;13.15;;;;;;;;;;5091911;28;20020;-78
2021/12/22 10:10:53;;;;;;;24.17;13.30;;;;;;;;;;5090492;28;20047;-80
2021/12/22 10:13:26;;;;;;;28.95;12.35;;;;;;;;;;5081526;28;20020;-79
2021/12/22 10:15:52;;;;;;;23.98;13.30;;;;;;;;;;5084651;28;20477;-79
2021/12/22 10:18:28;;;;;;;23.85;12.30;;;;;;;;;;5080334;28;20048;-82
2021/12/22 10:21:09;;;;;;;34.55;12.65;;;;;;;;;;5083006;28;20054;-80
2021/12/22 10:23:35;;;;;;;23.17;12.45;;;;;;;;;;5081870;28;20430;-80
2021/12/22 10:26:05;;;;;;;26.23;12.35;;;;;;;;;;5085677;28;20060;-81
2021/12/22 10:28:57;;;;;;;22.77;13.15;;;;;;;;;;5085350;28;20028;-81
2021/12/22 10:31:45;;;;;;;18.77;11.45;;;;;;;;;;5089474;28;20030;-80
2021/12/22 10:34:17;;;;;;;25.38;12.07;;;;;;;;;;5087784;28;20016;-81
2021/12/22 10:36:48;;;;;;;21.90;12.00;;;;;;;;;;5084011;28;20034;-79
2021/12/22 10:39:33;;;;;;;18.55;12.30;;;;;;;;;;5088367;28;20028;-80
2021/12/22 10:42:08;;;;;;;22.73;12.32;;;;;;;;;;5084327;28;20060;-79
2021/12/22 10:44:39;;;;;;;22.85;12.65;;;;;;;;;;5084428;28;20027;-77
2021/12/22 10:47:21;;;;;;;23.45;13.55;;;;;;;;;;5087708;28;20039;-79
2021/12/22 10:50:01;;;;;;;21.15;12.40;;;;;;;;;;5082559;28;20049;-80
2021/12/22 10:52:27;;;;;;;25.00;13.30;;;;;;;;;;5084842;28;20038;-79
2021/12/22 10:55:13;;;;;;;27.40;14.45;;;;;;;;;;5086600;28;20028;-79
2021/12/22 10:57:40;;;;;;;30.77;15.40;;;;;;;;;;5081493;28;20028;-79
2021/12/22 11:00:21;;;;;;;23.05;13.70;;;;;;;;;;5087862;28;20097;-80
2021/12/22 11:03:08;;;;;;;24.67;15.07;;;;;;;;;;5091839;28;20031;-81
2021/12/22 11:05:46;;;;;;;27.15;15.20;;;;;;;;;;5088343;28;20617;-80
2021/12/22 11:08:23;;;;;;;31.77;15.45;;;;;;;;;;5088873;28;20039;-80
2021/12/22 11:10:49;;;;;;;29.73;17.05;;;;;;;;;;5080010;28;20031;-81
2021/12/22 11:13:24;;;;;;;29.80;16.88;;;;;;;;;;5089331;28;20016;-80
2021/12/22 11:15:51;;;;;;;31.88;18.33;;;;;;;;;;5089515;28;20573;-79
2021/12/22 11:18:33;;;;;;;34.65;18.60;;;;;;;;;;5089704;28;20039;-81
2021/12/22 11:21:21;;;;;;;36.05;16.88;;;;;;;;;;5083566;28;20111;-79
2021/12/22 11:23:47;;;;;;;33.67;17.50;;;;;;;;;;5084580;28;20051;-79
2021/12/22 11:26:13;;;;;;;44.47;20.65;;;;;;;;;;5085583;28;20036;-80
2021/12/22 11:28:40;;;;;;;38.30;20.27;;;;;;;;;;5085017;28;20361;-80
2021/12/22 11:31:07;;;;;;;29.88;17.95;;;;;;;;;;5081603;28;20031;-81
2021/12/22 11:33:34;;;;;;;31.77;18.85;;;;;;;;;;5086529;28;20073;-81
2021/12/22 11:36:02;;;;;;;36.10;20.00;;;;;;;;;;5086306;28;20032;-81
2021/12/22 11:38:30;;;;;;;45.17;21.75;;;;;;;;;;5083497;28;20075;-83
2021/12/22 11:41:11;;;;;;;34.60;20.15;;;;;;;;;;5085833;28;20384;-81
2021/12/22 11:43:38;;;;;;;39.90;21.67;;;;;;;;;;5088369;28;20024;-81
2021/12/22 11:46:05;;;;;;;43.70;22.02;;;;;;;;;;5090255;28;20038;-82
2021/12/22 11:48:32;;;;;;;42.90;21.13;;;;;;;;;;5083101;28;20028;-82
2021/12/22 11:50:58;;;;;;;37.17;20.17;;;;;;;;;;5082977;28;20379;-81
2021/12/22 11:53:23;;;;;;;37.80;21.33;;;;;;;;;;5082634;28;20020;-81
2021/12/22 11:55:51;;;;;;;36.78;20.25;;;;;;;;;;5082815;28;20039;-83
2021/12/22 11:58:25;;;;;;;42.65;22.70;;;;;;;;;;5085135;28;20038;-81
2021/12/22 12:00:54;;;;;;;42.20;21.90;;;;;;;;;;5087200;28;20080;-81
2021/12/22 12:03:22;;;;;;;40.25;19.88;;;;;;;;;;5086342;28;20039;-82
2021/12/22 12:06:08;;;;;;;35.55;21.52;;;;;;;;;;5085554;28;20038;-81
2021/12/22 12:08:41;;;;;;;36.75;20.73;;;;;;;;;;5086103;28;20483;-81
2021/12/22 12:11:13;;;;;;;37.88;21.00;;;;;;;;;;5079061;28;20077;-80
2021/12/22 12:13:49;;;;;;;46.50;21.70;;;;;;;;;;5090730;28;20024;-80
2021/12/22 12:21:58;;;;;;;35.53;21.85;;;;;;;;;;5085614;28;20093;-79
2021/12/22 12:24:48;;;;;;;40.53;21.60;;;;;;;;;;5078755;28;20563;-79
2021/12/22 12:27:43;;;;;;;42.60;21.15;;;;;;;;;;5081467;28;20020;-78
2021/12/22 12:30:12;;;;;;;40.78;22.88;;;;;;;;;;5082861;28;20410;-78
2021/12/22 12:32:40;;;;;;;41.88;23.65;;;;;;;;;;5084787;28;20451;-81
2021/12/22 12:35:26;;;;;;;43.58;23.15;;;;;;;;;;5079629;28;20095;-80
2021/12/22 12:38:17;;;;;;;45.17;23.25;;;;;;;;;;5083938;28;20104;-80
2021/12/22 12:40:54;;;;;;;51.08;24.83;;;;;;;;;;5081961;28;20039;-81
2021/12/22 12:46:20;;;;;;;42.92;21.98;;;;;;;;;;5078179;28;20032;-81
2021/12/22 12:48:54;;;;;;;41.63;22.35;;;;;;;;;;5083665;28;20051;-80
2021/12/22 12:51:29;;;;;;;40.95;21.25;;;;;;;;;;5080302;28;20101;-80
2021/12/22 12:53:58;;;;;;;48.42;25.33;;;;;;;;;;5088538;28;20052;-79
2021/12/22 12:56:31;;;;;;;40.70;23.35;;;;;;;;;;5086977;28;20028;-80
2021/12/22 12:58:59;;;;;;;41.88;24.40;;;;;;;;;;5079492;28;20024;-81
2021/12/22 13:01:52;;;;;;;47.28;24.23;;;;;;;;;;5083108;28;20112;-80
2021/12/22 13:04:20;;;;;;;40.38;23.98;;;;;;;;;;5085011;28;20033;-80
2021/12/22 13:06:50;;;;;;;40.17;23.25;;;;;;;;;;5088863;28;20028;-78
2021/12/22 13:09:23;;;;;;;;;;;;;;;;;;5089469;28;20073;-77
2021/12/22 13:17:21;;;;;;;43.88;23.13;;;;;;;;;;5083929;28;20039;-81
2021/12/22 13:19:53;;;;;;;53.83;25.45;;;;;;;;;;5089176;28;20051;-82
2021/12/22 13:22:30;;;;;;;47.13;25.27;;;;;;;;;;5090118;28;20494;-81
2021/12/22 13:25:06;;;;;;;50.17;25.67;;;;;;;;;;5088541;28;20059;-80
2021/12/22 13:27:31;;;;;;;53.10;25.15;;;;;;;;;;5091424;28;20515;-81
2021/12/22 13:30:10;;;;;;;54.22;27.73;;;;;;;;;;5088535;28;20342;-82
2021/12/22 13:32:53;;;;;;;52.95;25.85;;;;;;;;;;5091259;28;20077;-82
2021/12/22 13:35:45;;;;;;;60.95;26.60;;;;;;;;;;5088705;28;20043;-79
2021/12/22 13:38:20;;;;;;;49.20;23.83;;;;;;;;;;5088116;28;20482;-81
2021/12/22 13:40:59;;;;;;;49.17;27.80;;;;;;;;;;5086948;28;20077;-81
2021/12/22 13:43:33;;;;;;;46.50;26.00;;;;;;;;;;5081095;28;20032;-80
2021/12/22 13:46:11;;;;;;;48.95;24.52;;;;;;;;;;5085043;28;20097;-78
2021/12/22 13:49:03;;;;;;;57.38;26.08;;;;;;;;;;5087280;28;20028;-80
2021/12/22 13:51:37;;;;;;;52.50;24.98;;;;;;;;;;5088703;28;20043;-80
2021/12/22 13:54:11;;;;;;;52.22;25.80;;;;;;;;;;5086819;28;20061;-81
2021/12/22 13:56:38;;;;;;;45.90;23.73;;;;;;;;;;5088300;28;20455;-81
2021/12/22 13:59:06;;;;;;;51.00;27.50;;;;;;;;;;5087680;28;20036;-80
2021/12/22 14:01:34;;;;;;;52.53;27.25;;;;;;;;;;5090702;28;20479;-81
2021/12/22 14:04:00;;;;;;;54.08;27.27;;;;;;;;;;5085445;28;20031;-81
2021/12/22 14:06:27;;;;;;;43.28;22.42;;;;;;;;;;5079559;28;20021;-80
2021/12/22 14:09:13;;;;;;;50.22;24.13;;;;;;;;;;5088440;28;20058;-82
2021/12/22 14:11:54;;;;;;;43.63;23.95;;;;;;;;;;5090776;28;20035;-78
2021/12/22 14:14:28;;;;;;;51.95;24.40;;;;;;;;;;5091488;28;20024;-78
2021/12/22 14:17:03;;;;;;;42.85;23.38;;;;;;;;;;5088123;28;20106;-80
2021/12/22 14:19:37;;;;;;;48.30;26.10;;;;;;;;;;5084483;28;20024;-81
2021/12/22 14:22:25;;;;;;;49.25;24.67;;;;;;;;;;5088262;28;20031;-79
2021/12/22 14:25:04;;;;;;;55.00;30.00;;;;;;;;;;5083927;28;20040;-79
2021/12/22 14:27:37;;;;;;;47.28;23.55;;;;;;;;;;5089114;28;20028;-80
2021/12/22 14:30:29;;;;;;;46.33;22.35;;;;;;;;;;5085175;28;20024;-78
2021/12/22 14:33:25;;;;;;;50.38;25.23;;;;;;;;;;5105031;28;20031;-80
2021/12/22 14:36:00;;;;;;;45.38;25.88;;;;;;;;;;5082973;28;20450;-78
2021/12/22 14:38:28;;;;;;;39.35;21.95;;;;;;;;;;5084893;28;20024;-80
2021/12/22 14:41:00;;;;;;;44.45;24.10;;;;;;;;;;5085474;28;20038;-80
2021/12/22 14:43:40;;;;;;;54.13;24.80;;;;;;;;;;5080144;28;20024;-80
2021/12/22 14:46:07;;;;;;;66.97;32.42;;;;;;;;;;5089107;28;20442;-79
2021/12/22 14:48:40;;;;;;;59.17;26.08;;;;;;;;;;5088056;28;20118;-80
2021/12/22 14:51:16;;;;;;;45.80;23.58;;;;;;;;;;5091209;28;20046;-79
2021/12/22 14:53:47;;;;;;;44.42;23.20;;;;;;;;;;5090522;28;20035;-80
2021/12/22 14:56:23;;;;;;;37.53;18.80;;;;;;;;;;5088615;28;20375;-82
2021/12/22 14:58:56;;;;;;;40.08;21.58;;;;;;;;;;5083333;28;20531;-79
2021/12/22 15:01:25;;;;;;;42.38;21.45;;;;;;;;;;5088219;28;20038;-83
2021/12/22 15:03:55;;;;;;;33.78;20.27;;;;;;;;;;5086707;28;20043;-81
2021/12/22 15:06:22;;;;;;;40.65;22.45;;;;;;;;;;5082992;28;20032;-80
2021/12/22 15:08:48;;;;;;;35.03;19.05;;;;;;;;;;5087450;28;20055;-81
2021/12/22 15:11:14;;;;;;;42.15;20.38;;;;;;;;;;5087836;28;20031;-81
2021/12/22 15:13:41;;;;;;;38.25;19.65;;;;;;;;;;5086706;28;20418;-80
2021/12/22 15:16:08;;;;;;;36.40;18.98;;;;;;;;;;5087240;28;20031;-86
2021/12/22 15:18:35;;;;;;;35.08;16.90;;;;;;;;;;5087532;28;20024;-82
2021/12/22 15:21:00;;;;;;;47.20;19.83;;;;;;;;;;5089145;28;20406;-82
2021/12/22 15:23:26;;;;;;;65.97;27.17;;;;;;;;;;5082899;28;20024;-81
2021/12/22 15:25:52;;;;;;;47.00;19.13;;;;;;;;;;5088934;28;20031;-80
2021/12/22 15:28:18;;;;;;;78.93;27.67;;;;;;;;;;5084037;28;20383;-79
2021/12/22 15:30:51;;;;;;;66.38;29.33;;;;;;;;;;5085060;28;20103;-80
2021/12/22 15:33:22;;;;;;;48.53;18.95;;;;;;;;;;5085490;28;20030;-79
2021/12/22 15:35:49;;;;;;;19.88;10.18;;;;;;;;;;5084911;28;20378;-81